Time;durP1;ratioP1;P1;durP2;ratioP2;P2;SDS_P1;SDS_P2;PMS_P1;PMS_P2;Temp;Humidity;BMP_temperature;BMP_pressure;BME280_temperature;BME280_humidity;BME280_pressure;Samples;Min_cycle;Max_cycle;Signal;HPM_P1;HPM_P2
2023/02/23 00:01:51;;;;;;;39.53;16.00;;;1.40;99.90;;;;;;4149871;28;20333;-65
2023/02/23 00:03:57;;;;;;;36.03;15.13;;;1.40;99.90;;;;;;4146045;28;20602;-60
2023/02/23 00:06:02;;;;;;;33.33;15.07;;;1.30;99.90;;;;;;4146022;28;20735;-59
2023/02/23 00:08:04;;;;;;;26.87;13.87;;;1.30;99.90;;;;;;4145649;28;20325;-59
2023/02/23 00:10:09;;;;;;;29.67;13.97;;;1.30;99.90;;;;;;4146339;28;20750;-60
2023/02/23 00:12:11;;;;;;;31.07;15.00;;;1.30;99.90;;;;;;4144854;28;20280;-60
2023/02/23 00:14:12;;;;;;;27.00;14.00;;;1.20;99.90;;;;;;4146103;28;20349;-60
2023/02/23 00:16:24;;;;;;;29.47;14.90;;;1.20;99.90;;;;;;4145370;28;20345;-60
2023/02/23 00:18:28;;;;;;;26.93;13.57;;;1.20;99.90;;;;;;4145771;28;20268;-59
2023/02/23 00:20:30;;;;;;;31.80;14.57;;;1.10;99.90;;;;;;4144830;28;20357;-59
2023/02/23 00:22:31;;;;;;;35.23;15.40;;;1.10;99.90;;;;;;4146395;28;20743;-60
2023/02/23 00:24:32;;;;;;;33.63;14.97;;;1.10;99.90;;;;;;4145329;28;20687;-60
2023/02/23 00:26:35;;;;;;;28.43;13.70;;;1.10;99.90;;;;;;4146393;28;20298;-60
2023/02/23 00:28:36;;;;;;;29.97;14.00;;;1.10;99.90;;;;;;4145281;28;20259;-60
2023/02/23 00:30:38;;;;;;;32.83;14.67;;;1.20;99.90;;;;;;4146820;28;20339;-60
2023/02/23 00:32:39;;;;;;;27.00;13.93;;;1.10;99.90;;;;;;4145181;28;20268;-59
2023/02/23 00:34:40;;;;;;;34.83;14.03;;;1.20;99.90;;;;;;4146238;28;20765;-60
2023/02/23 00:36:42;;;;;;;29.50;13.77;;;1.10;99.90;;;;;;4147340;28;20267;-60
2023/02/23 00:38:44;;;;;;;30.13;14.23;;;1.10;99.90;;;;;;4162112;28;20666;-60
2023/02/23 00:40:45;;;;;;;32.20;14.40;;;1.10;99.90;;;;;;4161763;28;20309;-61
2023/02/23 00:42:48;;;;;;;29.97;13.90;;;1.10;99.90;;;;;;4149204;28;20279;-70
2023/02/23 00:44:50;;;;;;;32.27;14.93;;;1.10;99.90;;;;;;4160876;28;20750;-62
2023/02/23 00:46:51;;;;;;;31.13;14.10;;;1.00;99.90;;;;;;4161308;28;20333;-60
2023/02/23 00:48:56;;;;;;;32.67;14.13;;;1.00;99.90;;;;;;4161997;28;20279;-66
2023/02/23 00:51:03;;;;;;;30.63;13.97;;;1.00;99.90;;;;;;4160676;28;20287;-60
2023/02/23 00:53:04;;;;;;;27.10;13.20;;;1.00;99.90;;;;;;4162194;28;20336;-60
2023/02/23 00:55:07;;;;;;;30.70;14.13;;;0.90;99.90;;;;;;4161067;28;20789;-63
2023/02/23 00:57:08;;;;;;;28.23;12.87;;;1.00;99.90;;;;;;4162354;28;20739;-60
2023/02/23 00:59:10;;;;;;;30.40;12.33;;;0.90;99.90;;;;;;4160890;28;20332;-60
2023/02/23 01:01:13;;;;;;;26.23;12.47;;;1.00;99.90;;;;;;4162580;28;20345;-61
2023/02/23 01:03:15;;;;;;;25.80;12.50;;;0.90;99.90;;;;;;4160728;28;20332;-60
2023/02/23 01:05:16;;;;;;;24.80;12.73;;;0.90;99.90;;;;;;4161476;28;20323;-60
2023/02/23 01:07:17;;;;;;;23.93;11.07;;;0.90;99.90;;;;;;4160657;28;20639;-61
2023/02/23 01:09:26;;;;;;;25.33;12.30;;;0.90;99.90;;;;;;4162135;28;20271;-59
2023/02/23 01:11:29;;;;;;;26.10;11.77;;;0.90;99.90;;;;;;4128400;28;20292;-60
2023/02/23 01:13:30;;;;;;;25.67;11.27;;;0.90;99.90;;;;;;4129299;28;20314;-60
2023/02/23 01:15:32;;;;;;;23.67;10.97;;;0.90;99.90;;;;;;4128584;28;20252;-60
2023/02/23 01:17:33;;;;;;;24.13;11.80;;;0.90;99.90;;;;;;4132809;28;20314;-61
2023/02/23 01:19:35;;;;;;;23.87;10.80;;;0.90;99.90;;;;;;4161609;28;20254;-60
2023/02/23 01:21:40;;;;;;;26.00;10.63;;;0.90;99.90;;;;;;4161162;28;20354;-61
2023/02/23 01:23:42;;;;;;;21.87;10.00;;;0.80;99.90;;;;;;4161721;28;20321;-60
2023/02/23 01:25:43;;;;;;;26.30;11.57;;;0.90;99.90;;;;;;4160689;28;20266;-58
2023/02/23 01:27:45;;;;;;;22.57;10.57;;;0.80;99.90;;;;;;4161761;28;20279;-60
2023/02/23 01:32:15;;;;;;;21.47;11.07;;;0.80;99.90;;;;;;4591376;22;20355;-61
2023/02/23 01:34:17;;;;;;;20.97;10.60;;;0.80;99.90;;;;;;4144058;28;20272;-61
2023/02/23 01:36:18;;;;;;;26.13;11.23;;;0.80;99.90;;;;;;4145411;28;20317;-61
2023/02/23 01:38:19;;;;;;;22.13;10.43;;;0.80;99.90;;;;;;4144600;28;20267;-61
2023/02/23 01:40:27;;;;;;;19.67;10.33;;;0.80;99.90;;;;;;4155883;28;20665;-61
2023/02/23 01:42:28;;;;;;;23.13;11.40;;;0.70;99.90;;;;;;4160820;28;20333;-60
2023/02/23 01:44:31;;;;;;;21.23;9.80;;;0.70;99.90;;;;;;4159450;28;20286;-61
2023/02/23 01:46:40;;;;;;;22.70;10.17;;;0.70;99.90;;;;;;4161039;28;20301;-67
2023/02/23 01:48:42;;;;;;;25.20;10.50;;;0.70;99.90;;;;;;4127682;28;20260;-60
2023/02/23 01:51:12;;;;;;;22.33;10.37;;;0.70;99.90;;;;;;4128665;28;20296;-60
2023/02/23 01:53:16;;;;;;;22.52;9.98;;;0.70;99.90;;;;;;4127837;28;20272;-62
2023/02/23 01:55:23;;;;;;;21.50;10.77;;;0.70;99.90;;;;;;4128225;28;20093;-61
2023/02/23 01:57:25;;;;;;;25.40;12.13;;;0.70;99.90;;;;;;4142292;28;20316;-62
2023/02/23 01:59:38;;;;;;;25.70;10.63;;;0.60;99.90;;;;;;4146553;28;20283;-62
2023/02/23 02:01:41;;;;;;;29.83;11.77;;;0.60;99.90;;;;;;4159682;28;20352;-61
2023/02/23 02:03:53;;;;;;;22.60;11.03;;;0.60;99.90;;;;;;4161279;28;20305;-61
2023/02/23 02:05:55;;;;;;;23.43;11.03;;;0.50;99.90;;;;;;4160241;28;20658;-61
2023/02/23 02:07:57;;;;;;;23.80;11.30;;;0.50;99.90;;;;;;4161462;28;20819;-61
2023/02/23 02:12:13;;;;;;;27.03;11.93;;;0.40;99.90;;;;;;4161532;28;20325;-61
2023/02/23 02:14:18;;;;;;;24.80;11.13;;;0.40;99.90;;;;;;4160878;28;20267;-61
2023/02/23 02:17:01;;;;;;;22.53;10.97;;;0.30;99.90;;;;;;4164884;28;20266;-61
2023/02/23 02:19:15;;;;;;;24.10;9.97;;;0.20;99.90;;;;;;4150763;28;20271;-68
2023/02/23 02:21:38;;;;;;;23.37;11.20;;;0.20;99.90;;;;;;4147756;28;20301;-61
2023/02/23 02:23:57;;;;;;;22.60;11.13;;;0.20;99.90;;;;;;4147762;28;20601;-61
2023/02/23 02:26:21;;;;;;;23.93;10.10;;;0.20;99.90;;;;;;4147121;28;20333;-60
2023/02/23 02:28:50;;;;;;;24.13;11.17;;;0.20;99.90;;;;;;4148298;28;20267;-61
2023/02/23 02:31:22;;;;;;;19.80;9.43;;;0.20;99.90;;;;;;4146967;28;20790;-59
2023/02/23 02:34:00;;;;;;;21.27;10.07;;;0.20;99.90;;;;;;4148040;28;20280;-60
2023/02/23 02:36:23;;;;;;;24.67;10.60;;;0.20;99.90;;;;;;4147096;28;20820;-61
2023/02/23 02:38:33;;;;;;;24.97;10.37;;;0.20;99.90;;;;;;4147507;28;20276;-61
2023/02/23 02:40:51;;;;;;;23.17;10.18;;;0.20;99.90;;;;;;4147504;28;20272;-61
2023/02/23 02:43:19;;;;;;;19.77;9.40;;;0.20;99.90;;;;;;4147397;28;20057;-61
2023/02/23 02:45:50;;;;;;;15.90;8.10;;;0.20;99.90;;;;;;4147407;28;20276;-62
2023/02/23 02:48:02;;;;;;;17.42;8.10;;;0.20;99.90;;;;;;4146998;28;20337;-60
2023/02/23 02:50:13;;;;;;;16.83;8.57;;;0.20;99.90;;;;;;4147782;28;20065;-61
2023/02/23 02:52:28;;;;;;;18.50;8.57;;;0.30;99.90;;;;;;4146776;28;20282;-61
2023/02/23 02:54:35;;;;;;;22.53;9.00;;;0.30;99.90;;;;;;4147740;28;20325;-65
2023/02/23 02:56:42;;;;;;;19.03;8.50;;;0.30;99.90;;;;;;4146679;28;20275;-60
2023/02/23 02:58:43;;;;;;;22.03;9.93;;;0.30;99.90;;;;;;4147887;28;20751;-63
2023/02/23 04:17:39;;;;;;;31.30;12.07;;;-0.80;99.90;;;;;;4162703;28;20033;-64
2023/02/23 04:19:52;;;;;;;30.27;14.77;;;-0.90;99.90;;;;;;4156327;28;20318;-62
2023/02/23 04:21:53;;;;;;;33.23;13.83;;;-0.90;99.90;;;;;;4150395;28;20686;-61
2023/02/23 04:23:54;;;;;;;36.00;14.50;;;-0.90;99.90;;;;;;4161330;28;20270;-61
2023/02/23 04:25:56;;;;;;;35.67;13.93;;;-0.90;99.90;;;;;;4162621;28;20324;-62
2023/02/23 04:27:57;;;;;;;34.60;13.47;;;-0.90;99.90;;;;;;4151446;28;20271;-61
2023/02/23 04:29:58;;;;;;;35.87;14.47;;;-0.90;99.90;;;;;;4146347;28;20260;-61
2023/02/23 04:31:59;;;;;;;33.07;13.73;;;-1.00;99.90;;;;;;4144790;28;20342;-61
2023/02/23 04:34:00;;;;;;;30.87;13.80;;;-1.00;99.90;;;;;;4145893;28;20325;-61
2023/02/23 04:36:02;;;;;;;32.93;13.90;;;-1.00;99.90;;;;;;4150720;28;20275;-61
2023/02/23 04:38:03;;;;;;;26.43;12.00;;;-1.00;99.90;;;;;;4162080;28;20279;-66
2023/02/23 04:40:05;;;;;;;29.23;12.07;;;-1.00;99.90;;;;;;4161501;28;20293;-67
2023/02/23 04:42:07;;;;;;;39.60;12.27;;;-1.00;99.90;;;;;;4162218;28;20329;-60
2023/02/23 04:44:08;;;;;;;29.80;13.10;;;-1.00;99.90;;;;;;4161394;28;20321;-59
2023/02/23 04:46:09;;;;;;;27.73;12.33;;;-1.00;99.90;;;;;;4159988;28;20321;-68
2023/02/23 04:48:10;;;;;;;36.67;14.33;;;-1.00;99.90;;;;;;4161878;28;20357;-61
2023/02/23 04:50:12;;;;;;;28.50;13.20;;;-1.00;99.90;;;;;;4160634;28;20259;-62
2023/02/23 04:52:13;;;;;;;30.20;11.77;;;-1.00;99.90;;;;;;4161933;28;20286;-61
2023/02/23 04:54:14;;;;;;;30.00;12.67;;;-0.90;99.90;;;;;;4161083;28;20259;-62
2023/02/23 04:56:15;;;;;;;27.70;12.37;;;-0.90;99.90;;;;;;4162198;28;20274;-61
2023/02/23 04:58:16;;;;;;;27.53;12.53;;;-1.00;99.90;;;;;;4157068;28;20282;-63
2023/02/23 05:00:18;;;;;;;41.13;17.33;;;-1.00;99.90;;;;;;4146795;28;20282;-70
2023/02/23 05:02:19;;;;;;;48.83;22.43;;;-1.10;99.90;;;;;;4144549;28;20342;-69
2023/02/23 05:04:20;;;;;;;51.23;18.50;;;-1.00;99.90;;;;;;4145472;28;20747;-61
2023/02/23 05:06:22;;;;;;;93.10;44.83;;;-1.00;99.90;;;;;;4159687;28;20336;-63
2023/02/23 05:08:23;;;;;;;60.10;29.47;;;-1.00;99.90;;;;;;4160030;28;20340;-68
2023/02/23 05:10:24;;;;;;;55.30;26.40;;;-1.00;99.90;;;;;;4159230;28;20267;-62
2023/02/23 05:12:25;;;;;;;37.13;17.20;;;-1.00;99.90;;;;;;4144742;28;20295;-61
2023/02/23 05:14:26;;;;;;;48.83;18.83;;;-0.90;99.90;;;;;;4144522;28;20325;-61
2023/02/23 05:16:28;;;;;;;86.53;49.13;;;-0.90;99.90;;;;;;4146499;28;20357;-61
2023/02/23 05:18:29;;;;;;;60.30;29.30;;;-0.90;99.90;;;;;;4144368;28;20271;-60
2023/02/23 05:20:30;;;;;;;40.87;21.83;;;-0.90;99.90;;;;;;4149400;28;20282;-61
2023/02/23 05:22:32;;;;;;;41.37;16.77;;;-0.90;99.90;;;;;;4143183;28;20279;-61
2023/02/23 05:24:34;;;;;;;28.77;15.00;;;-0.90;99.90;;;;;;4127600;28;20799;-61
2023/02/23 05:26:35;;;;;;;38.50;14.73;;;-0.90;99.90;;;;;;4146999;28;20735;-60
2023/02/23 05:28:38;;;;;;;36.03;15.50;;;-0.90;99.90;;;;;;4143872;28;20326;-59
2023/02/23 05:30:39;;;;;;;50.87;18.13;;;-0.80;99.90;;;;;;4144267;28;20309;-61
2023/02/23 05:32:40;;;;;;;46.67;17.57;;;-0.80;99.90;;;;;;4143467;28;20337;-60
2023/02/23 05:34:42;;;;;;;35.07;15.80;;;-0.80;99.90;;;;;;4145464;28;20329;-62
2023/02/23 05:36:43;;;;;;;52.50;20.87;;;-0.80;99.90;;;;;;4145038;28;20283;-62
2023/02/23 05:38:45;;;;;;;56.63;22.63;;;-0.80;99.90;;;;;;4143908;28;20271;-61
2023/02/23 05:40:47;;;;;;;52.53;21.80;;;-0.70;99.90;;;;;;4144281;28;20318;-60
2023/02/23 05:42:48;;;;;;;50.87;24.37;;;-0.70;99.90;;;;;;4148587;28;20282;-59
2023/02/23 05:44:49;;;;;;;56.50;25.67;;;-0.80;99.90;;;;;;4158392;28;20332;-61
2023/02/23 05:46:50;;;;;;;51.23;22.53;;;-0.70;99.90;;;;;;4160643;28;20682;-61
2023/02/23 05:48:56;;;;;;;53.57;22.13;;;-0.70;99.90;;;;;;4159940;28;20278;-70
2023/02/23 05:51:04;;;;;;;51.53;23.77;;;-0.70;99.90;;;;;;4154662;28;20444;-60
2023/02/23 05:53:05;;;;;;;49.97;22.23;;;-0.70;99.90;;;;;;4148861;28;20763;-61
2023/02/23 05:55:10;;;;;;;48.27;21.57;;;-0.70;99.90;;;;;;4159052;28;20350;-61
2023/02/23 05:57:11;;;;;;;46.60;20.30;;;-0.70;99.90;;;;;;4163440;28;20274;-60
2023/02/23 05:59:13;;;;;;;42.03;20.07;;;-0.60;99.90;;;;;;4161214;28;20672;-65
2023/02/23 06:01:14;;;;;;;52.13;20.83;;;-0.50;99.90;;;;;;4164362;28;20274;-60
2023/02/23 06:03:15;;;;;;;46.23;18.97;;;-0.30;99.90;;;;;;4163364;28;20849;-61
2023/02/23 06:05:16;;;;;;;50.83;21.40;;;-0.20;99.90;;;;;;4164593;28;20332;-61
2023/02/23 06:07:17;;;;;;;66.60;31.13;;;-0.20;99.90;;;;;;4162850;28;20329;-60
2023/02/23 06:09:19;;;;;;;241.83;99.23;;;-0.10;99.90;;;;;;4164588;28;20295;-61
2023/02/23 06:11:20;;;;;;;202.10;83.50;;;0.00;99.90;;;;;;4162986;28;20348;-61
2023/02/23 06:13:21;;;;;;;99.37;49.00;;;0.10;99.90;;;;;;4162524;28;20274;-61
2023/02/23 06:15:22;;;;;;;117.97;62.07;;;0.30;99.90;;;;;;4163031;28;20400;-61
2023/02/23 06:17:24;;;;;;;73.67;32.90;;;0.30;99.90;;;;;;4159814;28;20345;-62
2023/02/23 06:19:25;;;;;;;57.83;28.00;;;0.40;99.90;;;;;;4161475;28;20766;-60
2023/02/23 06:21:26;;;;;;;61.67;25.83;;;0.60;99.90;;;;;;4161917;28;20746;-61
2023/02/23 06:23:28;;;;;;;56.80;33.00;;;0.80;99.90;;;;;;4162422;28;20735;-61
2023/02/23 06:25:30;;;;;;;70.73;42.77;;;1.00;99.90;;;;;;4145741;28;20256;-61
2023/02/23 06:27:31;;;;;;;49.83;25.60;;;1.20;99.90;;;;;;4145896;28;20272;-62
2023/02/23 06:29:32;;;;;;;89.90;39.43;;;1.30;99.90;;;;;;4139464;28;20679;-62
2023/02/23 06:31:33;;;;;;;55.40;26.33;;;1.40;99.90;;;;;;4141557;28;20295;-62
2023/02/23 06:33:34;;;;;;;49.67;24.23;;;1.50;99.90;;;;;;4141348;28;20386;-63
2023/02/23 06:35:35;;;;;;;50.17;25.60;;;1.70;99.90;;;;;;4142072;28;20279;-62
2023/02/23 06:37:36;;;;;;;44.93;20.90;;;1.90;99.90;;;;;;4141357;28;20350;-62
2023/02/23 06:39:37;;;;;;;39.97;18.90;;;2.20;99.90;;;;;;4143441;28;20679;-64
2023/02/23 06:41:38;;;;;;;55.90;20.90;;;2.40;99.90;;;;;;4141722;28;20291;-61
2023/02/23 06:43:40;;;;;;;39.40;18.10;;;2.60;99.90;;;;;;4132844;28;20307;-62
2023/02/23 06:45:41;;;;;;;42.20;18.20;;;2.80;99.90;;;;;;4160874;28;20345;-62
2023/02/23 06:47:42;;;;;;;33.13;17.13;;;2.80;99.90;;;;;;4163810;28;20262;-64
2023/02/23 06:49:43;;;;;;;40.47;15.83;;;3.00;99.90;;;;;;4162952;28;20814;-63
2023/02/23 06:51:44;;;;;;;31.83;16.13;;;2.70;99.90;;;;;;4163323;28;20352;-62
2023/02/23 06:53:45;;;;;;;41.10;17.00;;;2.60;99.90;;;;;;4163487;28;20800;-62
2023/02/23 06:55:46;;;;;;;49.37;19.17;;;2.60;99.90;;;;;;4162533;28;20263;-65
2023/02/23 06:57:48;;;;;;;37.53;19.70;;;2.50;99.90;;;;;;4156072;28;20278;-62
2023/02/23 06:59:49;;;;;;;76.77;24.30;;;2.50;99.90;;;;;;4146027;28;20329;-62
2023/02/23 07:01:51;;;;;;;71.77;28.50;;;2.50;99.90;;;;;;4157622;28;20333;-63
2023/02/23 07:03:52;;;;;;;63.00;30.33;;;2.50;99.90;;;;;;4146465;28;20326;-63
2023/02/23 07:05:53;;;;;;;59.67;29.13;;;2.40;99.90;;;;;;4152811;28;20293;-62
2023/02/23 07:07:54;;;;;;;68.90;28.80;;;2.40;99.90;;;;;;4157388;28;20279;-62
2023/02/23 07:09:56;;;;;;;50.73;23.63;;;2.40;99.90;;;;;;4147156;28;20282;-63
2023/02/23 07:11:58;;;;;;;51.10;22.00;;;2.50;99.90;;;;;;4146086;28;20299;-62
2023/02/23 07:14:00;;;;;;;44.37;19.33;;;2.70;99.90;;;;;;4154802;28;20279;-62
2023/02/23 07:16:02;;;;;;;49.40;18.83;;;2.70;99.90;;;;;;4160224;28;20301;-63
2023/02/23 07:18:03;;;;;;;44.53;19.57;;;2.70;99.90;;;;;;4155501;28;20272;-64
2023/02/23 07:20:04;;;;;;;48.40;19.80;;;2.70;99.90;;;;;;4147895;28;20827;-66
2023/02/23 07:22:06;;;;;;;42.00;19.27;;;2.70;99.90;;;;;;4162715;28;20262;-64
2023/02/23 07:24:07;;;;;;;39.60;17.87;;;2.70;99.90;;;;;;4149044;28;20322;-62
2023/02/23 07:26:09;;;;;;;47.30;17.20;;;2.60;99.90;;;;;;4146227;28;20264;-62
2023/02/23 07:28:12;;;;;;;34.50;15.50;;;2.60;99.90;;;;;;4146181;28;20271;-65
2023/02/23 07:30:14;;;;;;;37.27;16.10;;;2.80;99.90;;;;;;4143969;28;20315;-64
2023/02/23 07:32:15;;;;;;;40.90;14.23;;;2.90;99.90;;;;;;4152460;28;20344;-64
2023/02/23 07:34:16;;;;;;;31.53;14.00;;;3.00;99.90;;;;;;4147571;28;20310;-65
2023/02/23 07:36:17;;;;;;;34.87;14.20;;;3.30;99.90;;;;;;4162383;28;20557;-63
2023/02/23 07:38:19;;;;;;;38.70;15.10;;;3.40;99.90;;;;;;4155511;28;20275;-65
2023/02/23 07:40:20;;;;;;;36.63;15.00;;;3.70;99.90;;;;;;4139787;28;20345;-64
2023/02/23 07:42:21;;;;;;;40.13;15.30;;;3.90;99.90;;;;;;4152283;28;20552;-62
2023/02/23 07:44:22;;;;;;;33.47;13.17;;;4.10;99.90;;;;;;4154392;28;20282;-64
2023/02/23 07:46:24;;;;;;;38.43;13.73;;;4.20;99.90;;;;;;4148244;28;20267;-64
2023/02/23 07:48:25;;;;;;;48.53;14.40;;;4.10;99.90;;;;;;4145986;28;20275;-63
2023/02/23 07:50:27;;;;;;;39.97;14.47;;;4.20;99.90;;;;;;4146289;28;20313;-64
2023/02/23 07:52:28;;;;;;;34.87;14.60;;;4.30;99.90;;;;;;4145609;28;20338;-64
2023/02/23 07:54:29;;;;;;;40.70;14.43;;;4.50;99.90;;;;;;4146198;28;20252;-64
2023/02/23 07:56:31;;;;;;;34.70;13.07;;;4.60;99.90;;;;;;4157687;28;20677;-64
2023/02/23 07:58:33;;;;;;;33.27;13.30;;;4.70;99.90;;;;;;4145695;28;20797;-65
2023/02/23 08:00:37;;;;;;;33.87;13.63;;;5.00;99.90;;;;;;4145001;28;20298;-63
2023/02/23 08:02:39;;;;;;;31.40;13.07;;;5.20;99.90;;;;;;4145819;28;20801;-64
2023/02/23 08:04:41;;;;;;;39.17;12.47;;;5.20;99.90;;;;;;4145432;28;20267;-65
2023/02/23 08:06:43;;;;;;;30.93;12.90;;;4.70;99.90;;;;;;4162433;28;20305;-65
2023/02/23 08:08:44;;;;;;;28.67;12.23;;;4.50;99.90;;;;;;4148303;28;21226;-64
2023/02/23 08:10:47;;;;;;;36.03;11.37;;;4.40;99.90;;;;;;4146098;28;20732;-64
2023/02/23 08:12:48;;;;;;;39.23;13.93;;;4.60;99.90;;;;;;4143400;28;20683;-63
2023/02/23 08:14:49;;;;;;;31.37;13.57;;;4.70;99.90;;;;;;4145777;28;20267;-63
2023/02/23 08:16:50;;;;;;;40.70;12.63;;;5.00;99.90;;;;;;4145164;28;20298;-64
2023/02/23 08:18:51;;;;;;;27.50;11.87;;;5.30;99.90;;;;;;4145579;28;20279;-64
2023/02/23 08:21:03;;;;;;;31.70;11.43;;;5.40;99.90;;;;;;4146902;28;20275;-64
2023/02/23 08:23:05;;;;;;;23.17;11.37;;;5.50;99.90;;;;;;4143635;28;20699;-63
2023/02/23 08:25:06;;;;;;;27.93;11.33;;;5.20;99.90;;;;;;4145783;28;20605;-64
2023/02/23 08:27:07;;;;;;;24.83;12.20;;;5.20;99.90;;;;;;4143529;28;20321;-64
2023/02/23 08:29:09;;;;;;;25.70;10.93;;;4.90;99.90;;;;;;4146032;28;20264;-64
2023/02/23 08:31:12;;;;;;;29.37;11.70;;;4.60;99.90;;;;;;4143657;28;20783;-68
2023/02/23 08:33:14;;;;;;;23.93;10.20;;;4.50;99.90;;;;;;4146784;28;20329;-64
2023/02/23 08:35:15;;;;;;;23.50;11.03;;;4.60;99.90;;;;;;4144035;28;20260;-63
2023/02/23 08:37:16;;;;;;;24.53;12.80;;;4.50;99.90;;;;;;4145761;28;20326;-67
2023/02/23 08:39:18;;;;;;;26.30;12.37;;;4.60;99.90;;;;;;4144367;28;21344;-64
2023/02/23 08:41:19;;;;;;;22.83;11.20;;;4.70;99.90;;;;;;4145592;28;20310;-63
2023/02/23 08:43:20;;;;;;;23.17;10.30;;;4.80;99.90;;;;;;4144562;28;20267;-63
2023/02/23 08:45:21;;;;;;;24.93;11.00;;;4.80;99.90;;;;;;4153911;28;20349;-62
2023/02/23 08:47:23;;;;;;;23.03;12.60;;;4.70;99.90;;;;;;4160942;28;20646;-64
2023/02/23 08:49:24;;;;;;;27.93;15.17;;;4.50;99.90;;;;;;4162306;28;20290;-63
2023/02/23 08:51:25;;;;;;;31.43;14.40;;;4.60;99.90;;;;;;4155155;28;20260;-63
2023/02/23 08:53:28;;;;;;;27.93;12.43;;;4.70;99.90;;;;;;4144694;28;20321;-65
2023/02/23 08:55:29;;;;;;;25.97;11.73;;;4.80;99.90;;;;;;4146238;28;21100;-63
2023/02/23 08:57:34;;;;;;;26.93;12.37;;;4.80;99.90;;;;;;4143612;28;20290;-63
2023/02/23 08:59:38;;;;;;;36.10;12.37;;;4.80;99.90;;;;;;4145409;28;20897;-68
2023/02/23 09:01:39;;;;;;;25.00;11.00;;;5.00;99.90;;;;;;4144119;28;20782;-62
2023/02/23 09:03:40;;;;;;;23.20;11.17;;;5.10;99.90;;;;;;4145624;28;20267;-63
2023/02/23 09:05:43;;;;;;;20.03;10.70;;;5.10;99.90;;;;;;4144316;28;20260;-63
2023/02/23 09:07:45;;;;;;;23.00;10.03;;;5.20;99.90;;;;;;4145383;28;20318;-63
2023/02/23 09:09:46;;;;;;;21.47;10.33;;;5.10;99.90;;;;;;4144213;28;20593;-65
2023/02/23 09:11:47;;;;;;;24.47;10.33;;;5.10;99.90;;;;;;4145302;28;20295;-63
2023/02/23 09:13:49;;;;;;;21.07;9.60;;;5.10;99.90;;;;;;4144191;28;20272;-63
2023/02/23 09:15:50;;;;;;;28.23;10.00;;;5.20;99.90;;;;;;4146295;28;20267;-69
2023/02/23 09:17:53;;;;;;;27.30;11.60;;;5.30;99.90;;;;;;4144027;28;20263;-63
2023/02/23 09:19:54;;;;;;;26.30;10.97;;;5.40;99.90;;;;;;4144566;28;20264;-64
2023/02/23 09:21:55;;;;;;;21.53;11.00;;;5.50;99.90;;;;;;4144704;28;20267;-64
2023/02/23 09:23:57;;;;;;;30.30;11.47;;;5.50;99.90;;;;;;4143971;28;20332;-70
2023/02/23 09:26:03;;;;;;;27.97;11.83;;;5.60;99.90;;;;;;4144606;28;20359;-64
2023/02/23 09:28:04;;;;;;;22.70;10.83;;;5.70;99.90;;;;;;4144645;28;20267;-63
2023/02/23 09:30:06;;;;;;;27.00;12.33;;;5.90;99.90;;;;;;4144583;28;20275;-63
2023/02/23 09:32:07;;;;;;;22.13;11.17;;;6.10;99.90;;;;;;4144013;28;20096;-63
2023/02/23 09:34:09;;;;;;;25.33;10.37;;;6.10;99.90;;;;;;4145306;28;20256;-63
2023/02/23 09:36:15;;;;;;;18.77;10.20;;;6.30;99.90;;;;;;4144339;28;20092;-64
2023/02/23 09:38:16;;;;;;;22.20;11.13;;;6.30;99.90;;;;;;4145029;28;20026;-63
2023/02/23 09:40:22;;;;;;;22.53;11.30;;;6.40;99.90;;;;;;4147727;28;20123;-63
2023/02/23 09:42:40;;;;;;;21.77;10.20;;;6.40;99.90;;;;;;4144895;28;20046;-63
2023/02/23 09:45:00;;;;;;;24.83;10.77;;;6.60;99.90;;;;;;4143664;28;20263;-64
2023/02/23 09:47:12;;;;;;;24.53;10.73;;;6.60;99.90;;;;;;4148394;28;20088;-64
2023/02/23 09:49:18;;;;;;;22.33;10.17;;;6.70;99.90;;;;;;4160933;28;20033;-64
2023/02/23 09:51:21;;;;;;;21.07;9.57;;;6.70;99.90;;;;;;4149612;28;20446;-64
2023/02/23 09:53:34;;;;;;;22.53;10.80;;;6.90;99.90;;;;;;4154261;28;20440;-64
2023/02/23 09:55:38;;;;;;;31.33;10.57;;;6.90;99.90;;;;;;4161420;28;20021;-64
2023/02/23 09:57:43;;;;;;;26.87;10.10;;;6.80;99.90;;;;;;4152928;28;20482;-64
2023/02/23 09:59:44;;;;;;;20.03;9.23;;;6.90;99.90;;;;;;4145099;28;20080;-65
2023/02/23 10:01:48;;;;;;;16.60;8.40;;;6.90;99.90;;;;;;4143310;28;20563;-65
2023/02/23 10:04:16;;;;;;;24.13;9.00;;;7.00;99.90;;;;;;4144981;28;20033;-64
2023/02/23 10:06:18;;;;;;;14.03;8.17;;;7.10;99.90;;;;;;4143300;28;20033;-63
2023/02/23 10:08:44;;;;;;;23.53;9.27;;;7.20;99.90;;;;;;4144250;28;20030;-64
2023/02/23 10:10:49;;;;;;;19.00;8.43;;;7.20;99.90;;;;;;4127550;28;20077;-64
2023/02/23 10:13:20;;;;;;;16.70;7.23;;;7.30;99.90;;;;;;4128600;28;20050;-63
2023/02/23 10:15:45;;;;;;;17.42;7.72;;;7.30;99.90;;;;;;4157845;28;20057;-65
2023/02/23 10:17:59;;;;;;;22.47;8.27;;;7.30;99.90;;;;;;4156518;28;20026;-63
2023/02/23 10:20:20;;;;;;;18.40;8.23;;;7.40;99.90;;;;;;4158232;28;20091;-64
2023/02/23 10:22:22;;;;;;;19.52;8.23;;;7.40;99.90;;;;;;4160030;28;20041;-63
2023/02/23 10:24:34;;;;;;;16.03;8.03;;;7.40;99.90;;;;;;4157712;28;20370;-63
2023/02/23 10:26:47;;;;;;;23.80;9.63;;;7.60;99.90;;;;;;4160284;28;20431;-63
2023/02/23 10:28:49;;;;;;;15.93;8.00;;;7.70;99.90;;;;;;4160509;28;20037;-62
2023/02/23 10:30:53;;;;;;;18.13;8.33;;;7.60;99.90;;;;;;4160782;28;20076;-63
2023/02/23 10:33:19;;;;;;;18.13;9.23;;;7.60;99.90;;;;;;4159913;28;20034;-64
2023/02/23 10:35:22;;;;;;;14.57;7.67;;;7.70;99.90;;;;;;4160172;28;20045;-65
2023/02/23 10:37:23;;;;;;;17.67;8.13;;;7.60;99.90;;;;;;4161310;28;20366;-65
2023/02/23 10:39:26;;;;;;;16.60;7.73;;;7.60;99.90;;;;;;4147211;28;20033;-64
2023/02/23 10:41:27;;;;;;;20.37;8.10;;;7.80;99.90;;;;;;4146471;28;20050;-63
2023/02/23 10:43:28;;;;;;;13.90;6.77;;;7.90;99.90;;;;;;4147722;28;20469;-64
2023/02/23 10:45:37;;;;;;;12.90;6.33;;;8.10;99.90;;;;;;4146031;28;20101;-68
2023/02/23 10:47:40;;;;;;;15.57;5.87;;;8.20;99.90;;;;;;4148756;28;20402;-65
2023/02/23 10:49:49;;;;;;;13.77;6.47;;;8.30;99.90;;;;;;4146781;28;20441;-65
2023/02/23 10:51:51;;;;;;;14.43;6.47;;;8.30;99.90;;;;;;4147126;28;20034;-63
2023/02/23 10:53:53;;;;;;;14.33;6.00;;;8.40;99.90;;;;;;4145406;28;20832;-66
2023/02/23 10:56:21;;;;;;;14.30;6.00;;;8.30;99.90;;;;;;4147359;28;20033;-65
2023/02/23 10:58:23;;;;;;;11.67;6.27;;;8.40;99.90;;;;;;4143300;28;20124;-63
2023/02/23 11:00:29;;;;;;;12.40;5.30;;;8.40;99.90;;;;;;4146932;28;20109;-64
2023/02/23 11:02:32;;;;;;;13.77;5.13;;;8.50;99.90;;;;;;4145333;28;20030;-66
2023/02/23 11:04:33;;;;;;;12.67;4.93;;;8.50;99.90;;;;;;4147547;28;20119;-65
2023/02/23 11:06:41;;;;;;;17.73;5.63;;;8.60;99.90;;;;;;4145440;28;20030;-68
2023/02/23 11:08:42;;;;;;;10.80;5.00;;;8.80;99.90;;;;;;4147163;28;20405;-63
2023/02/23 11:11:14;;;;;;;12.83;5.20;;;8.90;99.90;;;;;;4152199;28;20037;-63
2023/02/23 11:13:25;;;;;;;13.53;5.07;;;8.90;99.90;;;;;;4155996;28;20049;-63
2023/02/23 11:15:28;;;;;;;14.23;5.50;;;8.80;99.90;;;;;;4160415;28;20041;-63
2023/02/23 11:17:33;;;;;;;13.87;5.13;;;8.80;99.90;;;;;;4160861;28;20383;-64
2023/02/23 11:19:36;;;;;;;13.00;5.00;;;8.80;99.90;;;;;;4151279;28;20041;-63
2023/02/23 11:21:38;;;;;;;10.47;4.77;;;8.80;99.90;;;;;;4146243;28;20839;-63
2023/02/23 11:23:40;;;;;;;13.17;4.80;;;8.90;99.90;;;;;;4144893;28;20469;-63
2023/02/23 11:25:43;;;;;;;8.30;3.90;;;8.90;99.90;;;;;;4150218;28;20034;-64
2023/02/23 11:27:50;;;;;;;13.03;4.73;;;9.00;99.90;;;;;;4153471;28;20041;-63
2023/02/23 11:29:55;;;;;;;10.97;4.07;;;9.10;99.90;;;;;;4163020;28;20021;-65
2023/02/23 11:31:57;;;;;;;10.53;4.83;;;9.10;99.90;;;;;;4131420;28;20434;-63
2023/02/23 11:34:02;;;;;;;8.50;5.10;;;9.10;99.90;;;;;;4145636;28;20092;-64
2023/02/23 11:36:21;;;;;;;6.83;4.17;;;9.10;99.90;;;;;;4145786;28;20451;-68
2023/02/23 11:38:26;;;;;;;10.83;4.93;;;9.10;99.90;;;;;;4146302;28;20022;-64
2023/02/23 11:40:33;;;;;;;11.60;4.70;;;9.10;99.90;;;;;;4144608;28;20523;-65
2023/02/23 11:42:34;;;;;;;10.37;4.70;;;9.10;99.90;;;;;;4145570;28;20053;-65
2023/02/23 11:44:35;;;;;;;9.07;4.53;;;9.20;99.90;;;;;;4145778;28;20103;-64
2023/02/23 11:46:38;;;;;;;14.43;5.87;;;9.30;99.90;;;;;;4145530;28;20100;-68
2023/02/23 11:48:49;;;;;;;16.33;5.27;;;9.50;99.90;;;;;;4146043;28;20449;-68
2023/02/23 11:50:51;;;;;;;11.93;4.57;;;9.50;99.90;;;;;;4145396;28;20116;-69
2023/02/23 11:53:10;;;;;;;13.03;5.10;;;9.50;99.90;;;;;;4146182;28;20680;-67
2023/02/23 11:55:17;;;;;;;13.20;5.10;;;9.40;99.90;;;;;;4145356;28;20092;-64
2023/02/23 11:57:25;;;;;;;8.40;4.90;;;9.40;99.90;;;;;;4154573;28;20084;-63
2023/02/23 11:59:34;;;;;;;11.07;4.40;;;9.50;99.90;;;;;;4161018;28;20029;-65
2023/02/23 12:01:45;;;;;;;11.03;4.60;;;9.60;99.90;;;;;;4161706;28;20017;-68
2023/02/23 12:03:54;;;;;;;10.33;4.13;;;9.70;99.90;;;;;;4152381;28;20045;-63